createdAt,value
2017-11-09T00:00:46.060Z,29.90
2017-11-09T00:03:13.598Z,28.17
2017-11-09T00:05:47.020Z,28.47
2017-11-09T00:08:14.562Z,32.63
2017-11-09T00:10:42.095Z,29.13
2017-11-09T00:13:09.665Z,31.40
2017-11-09T00:15:37.204Z,26.50
2017-11-09T00:18:05.519Z,29.97
2017-11-09T00:20:33.055Z,23.53
2017-11-09T00:23:00.623Z,26.73
2017-11-09T00:25:28.164Z,26.27
2017-11-09T00:27:55.735Z,26.80
2017-11-09T00:30:23.266Z,28.37
2017-11-09T00:32:51.592Z,23.10
2017-11-09T00:35:19.128Z,25.53
2017-11-09T00:37:46.691Z,29.20
2017-11-09T00:40:14.233Z,27.30
2017-11-09T00:42:42.564Z,28.20
2017-11-09T00:45:10.103Z,33.03
2017-11-09T00:47:37.660Z,28.90
2017-11-09T00:50:05.203Z,27.20
2017-11-09T00:52:32.763Z,31.57
2017-11-09T00:55:00.300Z,33.33
2017-11-09T00:57:28.624Z,28.33
2017-11-09T00:59:56.155Z,33.73
2017-11-09T01:02:24.472Z,33.07
2017-11-09T01:04:52.009Z,27.33
2017-11-09T01:07:19.564Z,33.63
2017-11-09T01:09:47.096Z,27.60
2017-11-09T01:12:15.427Z,30.10
2017-11-09T01:14:42.963Z,28.23
2017-11-09T01:17:10.522Z,26.83
2017-11-09T01:19:38.056Z,24.97
2017-11-09T01:22:06.388Z,26.07
2017-11-09T01:24:33.937Z,28.80
2017-11-09T01:27:01.500Z,23.50
2017-11-09T01:29:29.036Z,24.77
2017-11-09T01:31:56.595Z,23.37
2017-11-09T01:34:24.124Z,25.53
2017-11-09T01:36:52.468Z,32.67
2017-11-09T01:39:20.002Z,27.90
2017-11-09T01:41:47.555Z,24.90
2017-11-09T01:44:15.110Z,26.77
2017-11-09T01:46:42.676Z,24.60
2017-11-09T01:49:10.212Z,29.37
2017-11-09T01:51:38.541Z,30.87
2017-11-09T01:54:06.849Z,25.80
2017-11-09T01:56:34.468Z,29.33
2017-11-09T01:59:02.004Z,25.80
2017-11-09T02:01:29.560Z,23.37
2017-11-09T02:03:57.171Z,21.70
2017-11-09T02:06:24.745Z,24.67
2017-11-09T02:08:52.280Z,28.57
2017-11-09T02:11:19.876Z,28.97
2017-11-09T02:13:47.402Z,29.40
2017-11-09T02:16:14.936Z,28.73
2017-11-09T02:18:42.493Z,21.50
2017-11-09T02:21:10.035Z,24.53
2017-11-09T02:23:37.599Z,25.53
2017-11-09T02:26:05.131Z,25.60
2017-11-09T02:28:32.696Z,22.60
2017-11-09T02:31:01.011Z,23.83
2017-11-09T02:33:28.573Z,25.00
2017-11-09T02:35:56.112Z,25.37
2017-11-09T02:38:23.683Z,27.47
2017-11-09T02:40:51.215Z,22.13
2017-11-09T02:43:19.552Z,24.97
2017-11-09T02:45:47.081Z,24.80
2017-11-09T02:48:14.631Z,22.83
2017-11-09T02:50:42.164Z,23.63
2017-11-09T02:53:10.502Z,29.00
2017-11-09T02:55:38.049Z,19.83
2017-11-09T02:58:05.609Z,29.47
2017-11-09T03:00:33.148Z,27.70
2017-11-09T03:03:00.711Z,28.17
2017-11-09T03:05:28.243Z,30.37
2017-11-09T03:07:56.567Z,29.03
2017-11-09T03:10:24.108Z,31.33
2017-11-09T03:12:51.667Z,34.83
2017-11-09T03:15:19.197Z,30.70
2017-11-09T03:17:46.758Z,36.10
2017-11-09T03:20:14.295Z,34.40
2017-11-09T03:22:41.843Z,38.73
2017-11-09T03:25:09.383Z,43.40
2017-11-09T03:27:36.948Z,37.33
2017-11-09T03:30:07.537Z,30.73
2017-11-09T03:32:35.107Z,40.10
2017-11-09T03:35:02.654Z,37.47
2017-11-09T03:37:30.233Z,35.13
2017-11-09T03:39:57.763Z,33.77
2017-11-09T03:42:25.324Z,39.20
2017-11-09T03:44:53.627Z,34.10
2017-11-09T03:47:21.951Z,35.17
2017-11-09T03:49:49.492Z,32.87
2017-11-09T03:52:17.053Z,34.97
2017-11-09T03:54:44.588Z,30.47
2017-11-09T03:57:12.144Z,28.97
2017-11-09T03:59:39.724Z,31.97
2017-11-09T04:02:07.285Z,33.97
2017-11-09T04:04:34.812Z,31.67
2017-11-09T04:07:03.140Z,28.60
2017-11-09T04:09:30.683Z,35.70
2017-11-09T04:11:58.239Z,27.30
2017-11-09T04:14:25.771Z,29.93
2017-11-09T04:16:54.099Z,40.60
2017-11-09T04:19:21.629Z,27.67
2017-11-09T04:21:49.161Z,34.87
2017-11-09T04:24:17.493Z,31.93
2017-11-09T04:26:45.020Z,32.33
2017-11-09T04:29:12.583Z,29.83
2017-11-09T04:31:40.111Z,29.97
2017-11-09T04:34:08.434Z,38.90
2017-11-09T04:36:35.974Z,31.87
2017-11-09T04:39:03.533Z,30.60
2017-11-09T04:41:31.063Z,39.10
2017-11-09T04:43:58.624Z,31.43
2017-11-09T04:46:26.161Z,30.33
2017-11-09T04:48:53.728Z,34.73
2017-11-09T04:51:21.255Z,33.43
2017-11-09T04:53:48.825Z,35.50
2017-11-09T04:56:16.360Z,37.67
2017-11-09T04:58:43.926Z,29.37
2017-11-09T05:01:11.508Z,31.63
2017-11-09T05:03:39.069Z,38.53
2017-11-09T05:06:06.604Z,31.93
2017-11-09T05:08:34.168Z,35.27
2017-11-09T05:11:01.705Z,31.67
2017-11-09T05:13:29.266Z,34.63
2017-11-09T05:15:56.800Z,31.07
2017-11-09T05:18:25.128Z,28.13
2017-11-09T05:20:52.662Z,28.93
2017-11-09T05:23:20.230Z,27.97
2017-11-09T05:25:47.760Z,30.53
2017-11-09T05:28:16.085Z,29.33
2017-11-09T05:30:43.727Z,32.37
2017-11-09T05:33:11.495Z,37.37
2017-11-09T05:35:39.326Z,29.87
2017-11-09T05:38:07.705Z,27.93
2017-11-09T05:40:36.091Z,35.60
2017-11-09T05:43:04.667Z,40.27
2017-11-09T05:45:32.200Z,33.87
2017-11-09T05:47:59.760Z,39.60
2017-11-09T05:50:27.300Z,42.57
2017-11-09T05:52:55.175Z,30.83
2017-11-09T05:55:22.744Z,38.63
2017-11-09T05:57:50.304Z,36.30
2017-11-09T06:00:17.831Z,37.73
2017-11-09T06:02:45.384Z,35.87
2017-11-09T06:05:12.911Z,43.70
2017-11-09T06:07:40.547Z,32.63
2017-11-09T06:10:08.884Z,32.23
2017-11-09T06:12:36.440Z,34.97
2017-11-09T06:15:03.988Z,34.73
2017-11-09T06:17:32.308Z,34.73
2017-11-09T06:19:59.840Z,34.47
2017-11-09T06:22:27.401Z,31.70
2017-11-09T06:24:54.931Z,34.10
2017-11-09T06:27:23.266Z,32.30
2017-11-09T06:29:50.808Z,32.80
2017-11-09T06:32:18.345Z,43.40
2017-11-09T06:34:46.670Z,44.20
2017-11-09T06:37:14.209Z,46.37
2017-11-09T06:39:41.769Z,44.80
2017-11-09T06:42:09.311Z,44.87
2017-11-09T06:44:36.876Z,36.70
2017-11-09T06:47:04.407Z,36.87
2017-11-09T06:49:32.731Z,39.60
2017-11-09T06:52:00.263Z,38.83
2017-11-09T06:54:27.827Z,51.20
2017-11-09T06:56:55.376Z,44.57
2017-11-09T06:59:23.705Z,53.00
2017-11-09T07:01:51.243Z,51.77
2017-11-09T07:04:18.808Z,44.07
2017-11-09T07:06:46.343Z,43.10
2017-11-09T07:09:13.901Z,45.07
2017-11-09T07:11:41.438Z,50.20
2017-11-09T07:14:09.785Z,53.17
2017-11-09T07:16:37.318Z,52.10
2017-11-09T07:19:04.885Z,48.60
2017-11-09T07:21:32.423Z,50.07
2017-11-09T07:23:59.983Z,43.00
2017-11-09T07:26:27.511Z,48.97
2017-11-09T07:28:55.072Z,46.23
2017-11-09T07:31:22.601Z,52.93
2017-11-09T07:33:50.932Z,53.00
2017-11-09T07:36:18.475Z,36.07
2017-11-09T07:38:46.797Z,46.40
2017-11-09T07:41:14.335Z,39.80
2017-11-09T07:43:41.904Z,40.93
2017-11-09T07:46:09.444Z,39.50
2017-11-09T07:48:37.768Z,39.37
2017-11-09T07:51:05.308Z,42.17
2017-11-09T07:53:32.873Z,42.93
2017-11-09T07:56:00.411Z,37.93
2017-11-09T07:58:27.976Z,42.27
2017-11-09T08:00:55.506Z,34.47
2017-11-09T08:03:23.840Z,41.13
2017-11-09T08:05:51.376Z,38.20
2017-11-09T08:08:18.932Z,47.00
2017-11-09T08:10:46.459Z,33.90
2017-11-09T08:13:14.797Z,43.20
2017-11-09T08:15:42.335Z,37.20
2017-11-09T08:18:09.896Z,36.80
2017-11-09T08:20:37.441Z,32.40
2017-11-09T08:23:05.001Z,42.03
2017-11-09T08:25:33.731Z,34.23
2017-11-09T08:28:02.458Z,39.20
2017-11-09T08:30:33.580Z,38.10
2017-11-09T08:33:01.705Z,43.57
2017-11-09T08:35:29.253Z,38.87
2017-11-09T08:37:56.817Z,36.40
2017-11-09T08:40:24.385Z,33.20
2017-11-09T08:42:51.917Z,30.63
2017-11-09T08:45:20.249Z,37.50
2017-11-09T08:47:48.023Z,36.73
2017-11-09T08:50:15.593Z,32.30
2017-11-09T08:52:43.132Z,32.03
2017-11-09T08:55:10.692Z,31.37
2017-11-09T08:57:38.224Z,40.90
2017-11-09T09:00:05.784Z,31.70
2017-11-09T09:02:33.325Z,30.70
2017-11-09T09:05:00.894Z,32.77
2017-11-09T09:07:28.428Z,38.13
2017-11-09T09:09:56.765Z,36.03
2017-11-09T09:12:24.303Z,30.70
2017-11-09T09:14:51.861Z,32.07
2017-11-09T09:17:19.396Z,35.40
2017-11-09T09:19:47.725Z,41.60
2017-11-09T09:22:25.994Z,37.70
2017-11-09T09:24:57.024Z,39.30
2017-11-09T09:27:35.253Z,46.47
2017-11-09T09:30:18.992Z,35.43
2017-11-09T09:32:51.452Z,43.17
2017-11-09T09:35:26.201Z,40.40
2017-11-09T09:38:07.936Z,44.90
2017-11-09T09:40:37.857Z,40.20
2017-11-09T09:43:05.397Z,40.83
2017-11-09T09:45:32.958Z,37.30
2017-11-09T09:48:00.486Z,41.93
2017-11-09T09:50:28.049Z,46.43
2017-11-09T09:52:55.576Z,52.33
2017-11-09T09:55:23.905Z,38.90
2017-11-09T09:57:51.448Z,46.10
2017-11-09T10:00:19.000Z,42.47
2017-11-09T10:02:46.535Z,42.17
2017-11-09T10:05:14.856Z,42.17
2017-11-09T10:07:42.411Z,49.30
2017-11-09T10:10:09.975Z,42.70
2017-11-09T10:12:37.508Z,43.20
2017-11-09T10:15:05.069Z,45.13
2017-11-09T10:17:32.603Z,45.80
2017-11-09T10:20:00.929Z,41.07
2017-11-09T10:22:28.472Z,41.03
2017-11-09T10:24:56.036Z,42.77
2017-11-09T10:27:23.567Z,35.87
2017-11-09T10:29:51.144Z,42.47
2017-11-09T10:32:18.684Z,37.40
2017-11-09T10:34:47.001Z,42.77
2017-11-09T10:37:14.549Z,40.57
2017-11-09T10:39:42.107Z,44.63
2017-11-09T10:42:09.639Z,46.67
2017-11-09T10:44:37.975Z,41.47
2017-11-09T10:47:05.518Z,40.43
2017-11-09T10:49:33.047Z,39.20
2017-11-09T10:52:00.621Z,39.20
2017-11-09T10:54:28.169Z,38.77
2017-11-09T10:56:55.731Z,38.57
2017-11-09T10:59:23.276Z,38.37
2017-11-09T11:01:51.593Z,39.07
2017-11-09T11:04:19.132Z,40.43
2017-11-09T11:06:46.694Z,42.27
2017-11-09T11:09:14.228Z,42.67
2017-11-09T11:11:42.577Z,41.10
2017-11-09T11:14:10.113Z,44.97
2017-11-09T11:16:37.675Z,38.73
2017-11-09T11:19:05.219Z,35.60
2017-11-09T11:21:32.777Z,39.97
2017-11-09T11:24:00.328Z,35.23
2017-11-09T11:26:27.892Z,34.17
2017-11-09T11:28:55.428Z,40.93
2017-11-09T11:31:23.763Z,39.90
2017-11-09T11:33:51.307Z,40.13
2017-11-09T11:36:18.871Z,42.47
2017-11-09T11:38:46.405Z,36.27
2017-11-09T11:41:13.968Z,42.37
2017-11-09T11:43:41.503Z,37.03
2017-11-09T11:46:12.832Z,40.67
2017-11-09T11:48:40.374Z,43.90
2017-11-09T11:51:07.937Z,39.23
2017-11-09T11:53:35.474Z,46.10
2017-11-09T11:56:03.024Z,49.67
2017-11-09T11:58:30.558Z,47.00
2017-11-09T12:00:58.884Z,42.37
2017-11-09T12:03:26.425Z,40.17
2017-11-09T12:05:53.995Z,41.47
2017-11-09T12:08:21.530Z,42.13
2017-11-09T12:10:49.094Z,38.00
2017-11-09T12:13:18.561Z,34.80
2017-11-09T12:15:46.134Z,41.30
2017-11-09T12:18:14.441Z,39.80
2017-11-09T12:20:41.997Z,37.37
2017-11-09T12:23:09.525Z,39.57
2017-11-09T12:25:37.868Z,37.53
2017-11-09T12:28:05.419Z,35.90
2017-11-09T12:30:32.976Z,36.13
2017-11-09T12:33:00.511Z,38.20
2017-11-09T12:35:28.068Z,30.00
2017-11-09T12:37:55.629Z,31.57
2017-11-09T12:40:23.164Z,29.17
2017-11-09T12:42:51.487Z,34.60
2017-11-09T12:45:31.648Z,32.57
2017-11-09T12:47:59.984Z,30.87
2017-11-09T12:50:27.532Z,32.10
2017-11-09T12:52:55.859Z,33.60
2017-11-09T12:55:23.401Z,37.00
2017-11-09T12:57:50.980Z,26.93
2017-11-09T13:00:18.539Z,28.63
2017-11-09T13:02:46.105Z,28.63
2017-11-09T13:05:13.649Z,27.63
2017-11-09T13:07:41.216Z,28.33
2017-11-09T13:10:08.751Z,32.40
2017-11-09T13:12:36.317Z,28.43
2017-11-09T13:15:03.853Z,27.47
2017-11-09T13:17:32.177Z,29.70
2017-11-09T13:19:59.721Z,28.10
2017-11-09T13:22:27.283Z,26.33
2017-11-09T13:24:54.821Z,32.67
2017-11-09T13:27:22.378Z,28.07
2017-11-09T13:29:50.676Z,29.00
2017-11-09T13:32:18.250Z,26.50
2017-11-09T13:34:45.792Z,26.60
2017-11-09T13:37:13.359Z,26.77
2017-11-09T13:39:40.909Z,24.67
2017-11-09T13:42:08.471Z,24.47
2017-11-09T13:44:36.026Z,23.33
2017-11-09T13:47:03.590Z,23.67
2017-11-09T13:49:31.124Z,23.03
2017-11-09T13:51:59.452Z,22.17
2017-11-09T13:54:26.980Z,25.03
2017-11-09T13:56:54.540Z,22.80
2017-11-09T13:59:22.080Z,21.47
2017-11-09T14:01:50.409Z,25.43
2017-11-09T14:04:17.945Z,23.93
2017-11-09T14:06:45.509Z,23.10
2017-11-09T14:09:13.061Z,25.63
2017-11-09T14:11:40.615Z,24.57
2017-11-09T14:14:08.149Z,22.37
2017-11-09T14:16:36.478Z,23.00
2017-11-09T14:19:04.012Z,27.37
2017-11-09T14:21:31.577Z,24.30
2017-11-09T14:23:59.119Z,24.87
2017-11-09T14:26:27.439Z,27.20
2017-11-09T14:28:54.972Z,28.63
2017-11-09T14:31:22.531Z,22.07
2017-11-09T14:33:50.064Z,25.30
2017-11-09T14:36:18.393Z,27.93
2017-11-09T14:38:50.466Z,30.60
2017-11-09T14:41:18.036Z,27.97
2017-11-09T14:43:45.575Z,25.90
2017-11-09T14:46:13.141Z,37.10
2017-11-09T14:48:40.675Z,38.70
2017-11-09T14:51:08.240Z,32.37
2017-11-09T14:53:35.767Z,26.40
2017-11-09T14:56:04.068Z,28.37
2017-11-09T14:58:31.633Z,28.33
2017-11-09T15:00:59.160Z,27.30
2017-11-09T15:03:27.484Z,27.07
2017-11-09T15:05:55.029Z,27.77
2017-11-09T15:08:22.584Z,24.40
2017-11-09T15:10:50.123Z,26.10
2017-11-09T15:13:18.461Z,25.10
2017-11-09T15:15:51.705Z,23.13
2017-11-09T15:18:20.035Z,42.23
2017-11-09T15:20:47.578Z,30.83
2017-11-09T15:23:15.136Z,28.67
2017-11-09T15:25:42.671Z,31.63
2017-11-09T15:28:10.239Z,32.47
2017-11-09T15:30:37.796Z,28.73
2017-11-09T15:33:07.288Z,28.90
2017-11-09T15:35:36.769Z,35.57
2017-11-09T15:38:04.331Z,34.53
2017-11-09T15:40:31.868Z,30.60
2017-11-09T15:42:59.425Z,31.03
2017-11-09T15:45:26.964Z,29.80
2017-11-09T15:47:54.526Z,31.17
2017-11-09T15:50:22.069Z,25.60
2017-11-09T15:52:49.628Z,24.87
2017-11-09T15:55:17.167Z,27.23
2017-11-09T15:57:45.485Z,26.53
2017-11-09T16:00:13.020Z,26.53
2017-11-09T16:02:40.581Z,27.00
2017-11-09T16:05:08.115Z,33.00
2017-11-09T16:07:39.392Z,25.30
2017-11-09T16:10:06.935Z,26.03
2017-11-09T16:12:35.270Z,35.17
2017-11-09T16:15:02.808Z,26.60
2017-11-09T16:17:31.138Z,27.10
2017-11-09T16:19:59.448Z,28.83
2017-11-09T16:22:27.007Z,30.40
2017-11-09T16:24:54.557Z,28.20
2017-11-09T16:27:22.923Z,23.97
2017-11-09T16:29:50.473Z,27.47
2017-11-09T16:32:18.802Z,27.10
2017-11-09T16:34:46.337Z,29.33
2017-11-09T16:37:13.916Z,29.53
2017-11-09T16:39:41.457Z,33.07
2017-11-09T16:42:09.021Z,30.07
2017-11-09T16:44:36.566Z,30.63
2017-11-09T16:47:04.399Z,34.57
2017-11-09T16:49:32.003Z,29.77
2017-11-09T16:51:59.625Z,26.53
2017-11-09T16:54:27.166Z,33.30
2017-11-09T16:56:54.825Z,29.10
2017-11-09T16:59:22.358Z,28.37
2017-11-09T17:01:49.891Z,32.77
2017-11-09T17:04:17.447Z,29.07
2017-11-09T17:06:45.765Z,23.77
2017-11-09T17:09:13.330Z,30.50
2017-11-09T17:11:40.887Z,32.77
2017-11-09T17:14:08.443Z,29.57
2017-11-09T17:16:35.976Z,28.47
2017-11-09T17:19:03.541Z,32.97
2017-11-09T17:21:31.076Z,38.70
2017-11-09T17:23:59.405Z,42.33
2017-11-09T17:26:27.136Z,36.00
2017-11-09T17:28:54.699Z,31.60
2017-11-09T17:31:22.241Z,34.10
2017-11-09T17:33:50.576Z,36.87
2017-11-09T17:36:18.115Z,38.73
2017-11-09T17:38:45.692Z,30.77
2017-11-09T17:41:16.025Z,31.80
2017-11-09T17:43:48.532Z,32.33
2017-11-09T17:46:16.844Z,35.23
2017-11-09T17:48:44.409Z,26.83
2017-11-09T17:51:13.728Z,32.37
2017-11-09T17:53:41.292Z,33.73
2017-11-09T17:56:09.595Z,36.73
2017-11-09T17:58:38.116Z,28.63
2017-11-09T18:01:05.659Z,29.00
2017-11-09T18:03:34.786Z,29.00
2017-11-09T18:06:02.329Z,31.07
2017-11-09T18:08:29.892Z,32.53
2017-11-09T18:10:57.436Z,30.93
2017-11-09T18:13:25.763Z,33.90
2017-11-09T18:15:53.287Z,36.77
2017-11-09T18:18:20.952Z,39.30
2017-11-09T18:20:48.532Z,26.83
2017-11-09T18:23:16.097Z,39.03
2017-11-09T18:25:43.627Z,35.20
2017-11-09T18:28:11.200Z,37.00
2017-11-09T18:30:38.735Z,35.53
2017-11-09T18:33:06.303Z,39.33
2017-11-09T18:35:33.843Z,41.73
2017-11-09T18:38:02.184Z,40.40
2017-11-09T18:40:29.733Z,36.27
2017-11-09T18:42:57.274Z,40.93
2017-11-09T18:45:24.836Z,36.10
2017-11-09T18:47:52.363Z,37.90
2017-11-09T18:50:20.684Z,46.40
2017-11-09T18:52:48.258Z,36.83
2017-11-09T18:55:15.831Z,40.17
2017-11-09T18:57:43.369Z,38.50
2017-11-09T19:00:10.927Z,49.23
2017-11-09T19:02:38.473Z,41.43
2017-11-09T19:05:06.028Z,35.57
2017-11-09T19:07:33.569Z,39.93
2017-11-09T19:10:01.140Z,51.77
2017-11-09T19:12:28.683Z,37.90
2017-11-09T19:14:57.008Z,44.57
2017-11-09T19:17:24.549Z,47.00
2017-11-09T19:19:52.896Z,52.47
2017-11-09T19:22:21.212Z,50.67
2017-11-09T19:24:48.779Z,46.27
2017-11-09T19:27:16.313Z,52.43
2017-11-09T19:29:43.877Z,44.57
2017-11-09T19:32:11.409Z,46.13
2017-11-09T19:34:39.744Z,44.07
2017-11-09T19:37:07.278Z,51.53
2017-11-09T19:39:34.830Z,43.33
2017-11-09T19:42:02.372Z,46.17
2017-11-09T19:44:30.695Z,47.70
2017-11-09T19:46:58.232Z,49.80
2017-11-09T19:49:25.796Z,42.13
2017-11-09T19:51:53.332Z,47.57
2017-11-09T19:54:21.656Z,41.07
2017-11-09T19:56:49.197Z,50.53
2017-11-09T19:59:16.762Z,52.27
2017-11-09T20:01:44.297Z,57.73
2017-11-09T20:04:11.864Z,49.83
2017-11-09T20:06:39.400Z,50.20
2017-11-09T20:09:07.732Z,48.77
2017-11-09T20:11:35.266Z,48.57
2017-11-09T20:14:02.827Z,52.27
2017-11-09T20:16:30.379Z,47.17
2017-11-09T20:18:57.945Z,45.50
2017-11-09T20:21:25.497Z,44.27
2017-11-09T20:23:53.061Z,41.77
2017-11-09T20:26:20.612Z,48.00
2017-11-09T20:28:48.176Z,46.63
2017-11-09T20:31:15.706Z,48.70
2017-11-09T20:33:43.268Z,49.33
2017-11-09T20:36:11.583Z,49.20
2017-11-09T20:38:39.128Z,43.03
2017-11-09T20:41:06.681Z,47.30
2017-11-09T20:43:34.986Z,45.83
2017-11-09T20:46:04.484Z,52.13
2017-11-09T20:48:32.015Z,48.90
2017-11-09T20:51:00.344Z,47.43
2017-11-09T20:53:30.686Z,44.97
2017-11-09T20:55:58.253Z,49.10
2017-11-09T20:58:25.827Z,41.77
2017-11-09T21:00:53.401Z,47.20
2017-11-09T21:03:21.703Z,41.10
2017-11-09T21:05:49.307Z,50.73
2017-11-09T21:08:16.845Z,48.57
2017-11-09T21:10:44.399Z,47.27
2017-11-09T21:13:11.937Z,43.90
2017-11-09T21:15:39.498Z,52.00
2017-11-09T21:18:07.040Z,47.80
2017-11-09T21:20:35.368Z,43.53
2017-11-09T21:23:02.956Z,49.17
2017-11-09T21:25:30.524Z,48.87
2017-11-09T21:27:58.838Z,48.70
2017-11-09T21:30:26.421Z,49.53
2017-11-09T21:32:53.969Z,45.07
2017-11-09T21:35:21.535Z,42.57
2017-11-09T21:37:49.073Z,45.20
2017-11-09T21:40:16.631Z,46.73
2017-11-09T21:42:44.174Z,44.43
2017-11-09T21:45:12.507Z,49.27
2017-11-09T21:47:40.066Z,51.97
2017-11-09T21:50:07.635Z,50.43
2017-11-09T21:52:35.168Z,47.77
2017-11-09T21:55:02.732Z,48.43
2017-11-09T21:57:30.266Z,49.77
2017-11-09T21:59:57.840Z,52.20
2017-11-09T22:02:25.383Z,56.90
2017-11-09T22:04:52.956Z,55.23
2017-11-09T22:07:20.657Z,49.13
2017-11-09T22:09:49.007Z,50.57
2017-11-09T22:12:16.547Z,46.80
2017-11-09T22:14:44.129Z,51.43
2017-11-09T22:17:11.721Z,47.63
2017-11-09T22:19:39.289Z,48.20
2017-11-09T22:22:06.824Z,47.27
2017-11-09T22:24:34.420Z,49.67
2017-11-09T22:27:01.953Z,46.53
2017-11-09T22:29:29.573Z,55.57
2017-11-09T22:51:22.272Z,51.33
2017-11-09T22:53:51.747Z,57.43
2017-11-09T22:56:19.317Z,55.60
2017-11-09T22:58:46.861Z,53.77
2017-11-09T23:01:15.240Z,57.57
2017-11-09T23:06:36.660Z,54.23
2017-11-09T23:09:04.961Z,47.37
2017-11-09T23:11:32.524Z,59.20
2017-11-09T23:14:00.055Z,55.50
2017-11-09T23:16:27.615Z,57.17
2017-11-09T23:18:55.152Z,54.33
2017-11-09T23:21:22.719Z,50.33
2017-11-09T23:23:50.260Z,52.33
2017-11-09T23:26:17.819Z,51.53
2017-11-09T23:28:45.364Z,47.70
2017-11-09T23:31:12.924Z,46.13
2017-11-09T23:33:40.466Z,44.40
2017-11-09T23:36:08.875Z,54.50
2017-11-09T23:38:37.189Z,47.67
2017-11-09T23:41:04.802Z,42.03
2017-11-09T23:43:32.339Z,45.67
2017-11-09T23:45:59.903Z,52.83
2017-11-09T23:48:27.431Z,51.93
2017-11-09T23:50:55.747Z,48.67
2017-11-09T23:53:23.283Z,43.13
2017-11-09T23:55:50.876Z,44.40
